createdAt,value
2022-09-23T00:02:16.976Z,10.42
2022-09-23T00:04:43.490Z,10.41
2022-09-23T00:07:10.109Z,10.38
2022-09-23T00:09:36.577Z,10.37
2022-09-23T00:12:08.117Z,10.37
2022-09-23T00:14:37.133Z,10.36
2022-09-23T00:17:03.674Z,10.34
2022-09-23T00:19:30.229Z,10.33
2022-09-23T00:21:56.760Z,10.31
2022-09-23T00:24:23.819Z,10.30
2022-09-23T00:26:50.976Z,10.27
2022-09-23T00:29:17.420Z,10.25
2022-09-23T00:31:43.876Z,10.22
2022-09-23T00:34:11.451Z,10.17
2022-09-23T00:36:38.622Z,10.15
2022-09-23T00:39:05.200Z,10.13
2022-09-23T00:41:32.802Z,10.11
2022-09-23T00:44:00.780Z,10.10
2022-09-23T00:46:35.567Z,10.06
2022-09-23T00:49:25.044Z,10.03
2022-09-23T00:51:57.540Z,10.00
2022-09-23T00:54:27.478Z,9.99
2022-09-23T00:56:56.292Z,9.97
2022-09-23T00:59:24.405Z,9.96
2022-09-23T01:01:54.778Z,9.90
2022-09-23T01:04:24.520Z,9.86
2022-09-23T01:06:50.968Z,9.84
2022-09-23T01:09:18.405Z,9.82
2022-09-23T01:11:57.044Z,9.79
2022-09-23T01:14:36.934Z,9.76
2022-09-23T01:17:27.476Z,9.73
2022-09-23T01:20:03.519Z,9.70
2022-09-23T01:22:42.025Z,9.70
2022-09-23T01:25:40.886Z,9.64
2022-09-23T01:28:41.229Z,9.63
2022-09-23T01:31:32.021Z,9.59
2022-09-23T01:34:10.813Z,9.57
2022-09-23T01:36:46.613Z,9.56
2022-09-23T01:39:24.478Z,9.54
2022-09-23T01:41:53.840Z,9.53
2022-09-23T01:44:29.457Z,9.52
2022-09-23T01:47:11.033Z,9.47
2022-09-23T01:50:03.386Z,9.45
2022-09-23T01:52:40.422Z,9.43
2022-09-23T01:55:18.962Z,9.42
2022-09-23T01:57:53.418Z,9.41
2022-09-23T02:00:23.535Z,9.41
2022-09-23T02:02:57.668Z,9.41
2022-09-23T02:05:36.886Z,9.38
2022-09-23T02:08:21.964Z,9.36
2022-09-23T02:10:56.118Z,9.35
2022-09-23T02:13:32.607Z,9.35
2022-09-23T02:16:06.399Z,9.33
2022-09-23T02:18:47.906Z,9.32
2022-09-23T02:21:16.768Z,9.30
2022-09-23T02:23:50.458Z,9.30
2022-09-23T02:26:22.186Z,9.29
2022-09-23T02:29:08.089Z,9.28
2022-09-23T02:31:53.702Z,9.25
2022-09-23T02:34:34.844Z,9.23
2022-09-23T02:37:10.256Z,9.20
2022-09-23T02:40:02.028Z,9.17
2022-09-23T02:42:47.267Z,9.13
2022-09-23T02:45:13.886Z,9.10
2022-09-23T02:47:44.125Z,9.06
2022-09-23T02:50:10.905Z,9.04
2022-09-23T02:52:38.724Z,9.02
2022-09-23T02:55:08.846Z,9.00
2022-09-23T02:57:35.638Z,8.98
2022-09-23T03:00:02.406Z,8.96
2022-09-23T03:02:35.094Z,8.93
2022-09-23T03:05:19.034Z,8.90
2022-09-23T03:08:12.676Z,8.88
2022-09-23T03:11:05.764Z,8.85
2022-09-23T03:13:51.109Z,8.84
2022-09-23T03:16:36.144Z,8.82
2022-09-23T03:19:19.295Z,8.79
2022-09-23T03:21:56.334Z,8.78
2022-09-23T03:24:24.927Z,8.77
2022-09-23T03:26:53.884Z,8.77
2022-09-23T03:29:22.723Z,8.74
2022-09-23T03:31:49.288Z,8.76
2022-09-23T03:34:24.922Z,8.76
2022-09-23T03:37:01.519Z,8.76
2022-09-23T03:39:40.274Z,8.76
2022-09-23T03:42:21.519Z,8.76
2022-09-23T03:44:52.835Z,8.75
2022-09-23T03:47:20.699Z,8.75
2022-09-23T03:49:49.626Z,8.73
2022-09-23T03:52:21.126Z,8.74
2022-09-23T03:54:48.237Z,8.75
2022-09-23T03:57:15.123Z,8.74
2022-09-23T03:59:41.825Z,8.74
2022-09-23T04:02:08.598Z,8.76
2022-09-23T04:04:40.181Z,8.79
2022-09-23T04:07:06.862Z,8.78
2022-09-23T04:09:33.455Z,8.77
2022-09-23T04:11:59.900Z,8.78
2022-09-23T04:14:26.580Z,8.77
2022-09-23T04:16:53.199Z,8.77
2022-09-23T04:19:19.680Z,8.77
2022-09-23T04:21:46.602Z,8.77
2022-09-23T04:24:13.695Z,8.77
2022-09-23T04:26:40.722Z,8.75
2022-09-23T04:29:07.955Z,8.74
2022-09-23T04:31:34.919Z,8.75
2022-09-23T04:34:01.374Z,8.75
2022-09-23T04:36:29.181Z,8.76
2022-09-23T04:38:56.669Z,8.76
2022-09-23T04:41:23.094Z,8.77
2022-09-23T04:43:49.528Z,8.78
2022-09-23T04:46:16.770Z,8.80
2022-09-23T04:48:43.627Z,8.81
2022-09-23T04:51:13.374Z,8.82
2022-09-23T04:53:42.191Z,8.83
2022-09-23T04:56:14.328Z,8.87
2022-09-23T04:58:41.746Z,8.89
2022-09-23T05:01:25.284Z,8.90
2022-09-23T05:03:54.024Z,8.92
2022-09-23T05:06:21.344Z,8.93
2022-09-23T05:08:54.161Z,8.94
2022-09-23T05:11:21.496Z,8.94
2022-09-23T05:13:49.479Z,8.95
2022-09-23T05:16:16.508Z,8.98
2022-09-23T05:18:45.103Z,9.00
2022-09-23T05:21:18.277Z,9.01
2022-09-23T05:23:49.918Z,9.03
2022-09-23T05:26:16.598Z,9.04
2022-09-23T05:28:43.202Z,9.05
2022-09-23T05:31:19.566Z,9.07
2022-09-23T05:33:51.945Z,9.08
2022-09-23T05:36:20.483Z,9.07
2022-09-23T05:38:48.580Z,9.07
2022-09-23T05:41:16.242Z,9.08
2022-09-23T05:43:42.962Z,9.08
2022-09-23T05:46:14.854Z,9.09
2022-09-23T05:48:42.392Z,9.10
2022-09-23T05:51:17.196Z,9.09
2022-09-23T05:53:45.538Z,9.11
2022-09-23T05:56:17.693Z,9.13
2022-09-23T05:58:44.809Z,9.15
2022-09-23T06:01:21.536Z,9.17
2022-09-23T06:03:49.164Z,9.19
2022-09-23T06:06:18.104Z,9.23
2022-09-23T06:08:48.044Z,9.26
2022-09-23T06:11:14.829Z,9.28
2022-09-23T06:13:41.644Z,9.32
2022-09-23T06:16:10.927Z,9.34
2022-09-23T06:18:44.793Z,9.36
2022-09-23T06:21:16.345Z,9.40
2022-09-23T06:23:43.549Z,9.41
2022-09-23T06:26:12.682Z,9.42
2022-09-23T06:28:40.930Z,9.45
2022-09-23T06:31:15.272Z,9.48
2022-09-23T06:33:46.071Z,9.52
2022-09-23T06:36:19.431Z,9.54
2022-09-23T06:38:57.286Z,9.60
2022-09-23T06:41:23.736Z,9.65
2022-09-23T06:43:50.150Z,9.71
2022-09-23T06:46:17.166Z,9.77
2022-09-23T06:48:46.298Z,9.82
2022-09-23T06:51:19.190Z,9.89
2022-09-23T06:53:47.123Z,9.96
2022-09-23T06:56:14.143Z,10.02
2022-09-23T06:58:40.717Z,10.10
2022-09-23T07:01:09.582Z,10.16
2022-09-23T07:03:37.023Z,10.24
2022-09-23T07:06:04.670Z,10.32
2022-09-23T07:08:33.741Z,10.38
2022-09-23T07:11:03.619Z,10.44
2022-09-23T07:13:33.414Z,10.52
2022-09-23T07:16:02.042Z,10.59
2022-09-23T07:18:36.788Z,10.67
2022-09-23T07:21:15.665Z,10.74
2022-09-23T07:23:47.131Z,10.81
2022-09-23T07:26:14.837Z,10.85
2022-09-23T07:28:41.388Z,10.93
2022-09-23T07:31:14.108Z,11.02
2022-09-23T07:33:43.706Z,11.08
2022-09-23T07:36:12.929Z,11.15
2022-09-23T07:38:44.290Z,11.22
2022-09-23T07:41:14.356Z,11.31
2022-09-23T07:43:41.165Z,11.38
2022-09-23T07:46:11.058Z,11.46
2022-09-23T07:48:38.596Z,11.54
2022-09-23T07:51:11.405Z,11.61
2022-09-23T07:53:38.016Z,11.70
2022-09-23T07:56:06.480Z,11.81
2022-09-23T07:58:34.914Z,11.93
2022-09-23T08:01:04.261Z,12.07
2022-09-23T08:03:30.752Z,12.16
2022-09-23T08:06:08.295Z,12.25
2022-09-23T08:08:35.662Z,12.37
2022-09-23T08:11:08.136Z,12.50
2022-09-23T08:13:34.539Z,12.63
2022-09-23T08:16:01.268Z,12.72
2022-09-23T08:18:28.015Z,12.79
2022-09-23T08:20:54.860Z,12.86
2022-09-23T08:23:21.532Z,12.95
2022-09-23T08:25:48.250Z,13.07
2022-09-23T08:28:19.154Z,13.19
2022-09-23T08:30:48.837Z,13.31
2022-09-23T08:33:19.677Z,13.39
2022-09-23T08:35:49.341Z,13.44
2022-09-23T08:38:16.062Z,13.53
2022-09-23T08:40:45.302Z,13.61
2022-09-23T08:43:22.455Z,13.71
2022-09-23T08:45:51.141Z,13.82
2022-09-23T08:48:27.637Z,13.97
2022-09-23T08:51:11.202Z,14.09
2022-09-23T08:53:38.379Z,14.23
2022-09-23T08:56:19.844Z,14.33
2022-09-23T08:59:23.086Z,14.38
2022-09-23T09:01:54.501Z,14.39
2022-09-23T09:04:23.809Z,14.43
2022-09-23T09:10:06.547Z,14.48
2022-09-23T09:12:45.247Z,14.50
2022-09-23T09:15:26.618Z,14.52
2022-09-23T09:18:07.766Z,14.54
2022-09-23T09:20:57.073Z,14.59
2022-09-23T09:23:36.603Z,14.67
2022-09-23T09:26:04.437Z,14.72
2022-09-23T09:29:06.577Z,14.75
2022-09-23T09:31:44.839Z,14.81
2022-09-23T09:34:35.132Z,14.88
2022-09-23T09:37:07.244Z,14.92
2022-09-23T09:39:35.372Z,14.95
2022-09-23T09:42:02.804Z,15.00
2022-09-23T09:44:54.170Z,15.04
2022-09-23T09:47:28.630Z,15.05
2022-09-23T09:50:13.993Z,15.12
2022-09-23T09:52:43.051Z,15.22
2022-09-23T09:55:12.608Z,15.29
2022-09-23T09:57:44.159Z,15.43
2022-09-23T10:00:25.733Z,15.63
2022-09-23T10:02:53.771Z,15.76
2022-09-23T10:05:46.746Z,15.84
2022-09-23T10:08:32.396Z,15.91
2022-09-23T10:10:58.852Z,15.97
2022-09-23T10:13:26.491Z,16.03
2022-09-23T10:15:54.983Z,16.08
2022-09-23T10:18:37.420Z,16.13
2022-09-23T10:21:16.071Z,16.21
2022-09-23T10:23:45.602Z,16.34
2022-09-23T10:26:13.978Z,16.47
2022-09-23T10:28:53.469Z,16.56
2022-09-23T10:31:34.584Z,16.63
2022-09-23T10:34:04.093Z,16.67
2022-09-23T10:36:32.638Z,16.69
2022-09-23T10:39:20.860Z,16.75
2022-09-23T10:42:23.490Z,16.80
2022-09-23T10:45:34.307Z,16.81
2022-09-23T10:48:15.742Z,16.85
2022-09-23T10:50:48.945Z,16.84
2022-09-23T10:53:22.863Z,16.86
2022-09-23T10:55:58.234Z,16.90
2022-09-23T10:58:50.416Z,16.89
2022-09-23T11:01:31.105Z,16.88
2022-09-23T11:04:26.141Z,16.88
2022-09-23T11:07:22.832Z,16.86
2022-09-23T11:10:23.202Z,16.91
2022-09-23T11:13:05.529Z,16.93
2022-09-23T11:15:56.720Z,16.94
2022-09-23T11:18:50.825Z,16.98
2022-09-23T11:21:39.637Z,16.98
2022-09-23T11:24:24.848Z,17.01
2022-09-23T11:27:15.932Z,17.03
2022-09-23T11:30:01.403Z,17.05
2022-09-23T11:35:45.327Z,17.07
2022-09-23T11:38:19.088Z,17.16
2022-09-23T11:40:54.754Z,17.21
2022-09-23T11:43:28.602Z,17.25
2022-09-23T11:45:56.481Z,17.33
2022-09-23T11:48:42.097Z,17.40
2022-09-23T11:51:14.585Z,17.47
2022-09-23T11:53:57.433Z,17.55
2022-09-23T11:56:35.756Z,17.65
2022-09-23T11:59:24.397Z,17.73
2022-09-23T12:02:20.395Z,17.84
2022-09-23T12:04:58.553Z,17.98
2022-09-23T12:07:44.224Z,18.09
2022-09-23T12:10:12.233Z,18.10
2022-09-23T12:12:52.995Z,18.14
2022-09-23T12:15:26.776Z,18.14
2022-09-23T12:18:26.607Z,18.11
2022-09-23T12:21:04.054Z,18.13
2022-09-23T12:23:36.429Z,18.13
2022-09-23T12:26:12.614Z,18.14
2022-09-23T12:28:45.073Z,18.18
2022-09-23T12:31:15.564Z,18.21
2022-09-23T12:33:50.675Z,18.19
2022-09-23T12:36:26.604Z,18.15
2022-09-23T12:39:01.987Z,18.17
2022-09-23T12:41:38.070Z,18.16
2022-09-23T12:44:12.154Z,18.13
2022-09-23T12:46:48.406Z,18.16
2022-09-23T12:49:35.657Z,18.11
2022-09-23T12:52:28.110Z,18.10
2022-09-23T12:55:18.385Z,18.18
2022-09-23T12:57:44.969Z,18.18
2022-09-23T13:00:12.845Z,18.18
2022-09-23T13:03:12.224Z,18.22
2022-09-23T13:06:11.782Z,18.30
2022-09-23T13:08:40.865Z,18.36
2022-09-23T13:11:28.379Z,18.36
2022-09-23T13:13:59.694Z,18.37
2022-09-23T13:16:35.147Z,18.30
2022-09-23T13:19:04.769Z,18.31
2022-09-23T13:21:43.160Z,18.32
2022-09-23T13:24:12.623Z,18.27
2022-09-23T13:26:48.756Z,18.22
2022-09-23T13:29:29.851Z,18.25
2022-09-23T13:32:00.323Z,18.20
2022-09-23T13:34:32.832Z,18.20
2022-09-23T13:37:22.196Z,18.15
2022-09-23T13:39:49.386Z,18.18
2022-09-23T13:42:27.080Z,18.21
2022-09-23T13:44:57.483Z,18.23
2022-09-23T13:47:26.789Z,18.26
2022-09-23T13:49:53.743Z,18.33
2022-09-23T13:52:29.912Z,18.36
2022-09-23T13:54:56.357Z,18.40
2022-09-23T13:57:34.917Z,18.51
2022-09-23T14:00:21.309Z,18.62
2022-09-23T14:02:47.863Z,18.70
2022-09-23T14:05:26.276Z,18.77
2022-09-23T14:07:54.810Z,18.87
2022-09-23T14:10:24.432Z,18.88
2022-09-23T14:12:52.964Z,18.87
2022-09-23T14:15:20.986Z,18.87
2022-09-23T14:17:56.064Z,18.83
2022-09-23T14:20:23.473Z,18.86
2022-09-23T14:23:20.484Z,18.77
2022-09-23T14:25:47.500Z,18.76
2022-09-23T14:28:19.771Z,18.72
2022-09-23T14:30:48.062Z,18.73
2022-09-23T14:33:18.833Z,18.72
2022-09-23T14:35:49.266Z,18.73
2022-09-23T14:38:45.001Z,18.79
2022-09-23T14:41:19.736Z,18.79
2022-09-23T14:43:57.321Z,18.80
2022-09-23T14:46:26.080Z,18.78
2022-09-23T14:49:17.757Z,18.76
2022-09-23T14:51:47.865Z,18.74
2022-09-23T14:54:33.902Z,18.67
2022-09-23T14:57:01.798Z,18.64
2022-09-23T14:59:37.558Z,18.50
2022-09-23T15:02:37.572Z,18.37
2022-09-23T15:05:30.797Z,18.29
2022-09-23T15:08:01.457Z,18.27
2022-09-23T15:10:31.824Z,18.24
2022-09-23T15:13:07.089Z,18.23
2022-09-23T15:15:33.811Z,18.17
2022-09-23T15:18:05.901Z,18.08
2022-09-23T15:20:33.372Z,18.02
2022-09-23T15:23:00.170Z,18.02
2022-09-23T15:25:32.589Z,17.99
2022-09-23T15:28:06.421Z,17.97
2022-09-23T15:30:36.292Z,17.94
2022-09-23T15:33:02.850Z,17.90
2022-09-23T15:35:32.087Z,17.87
2022-09-23T15:38:01.772Z,17.85
2022-09-23T15:40:33.812Z,17.84
2022-09-23T15:43:07.522Z,17.84
2022-09-23T15:45:40.263Z,17.84
2022-09-23T15:48:12.312Z,17.84
2022-09-23T15:50:41.191Z,17.81
2022-09-23T15:53:09.734Z,17.79
2022-09-23T15:55:36.194Z,17.75
2022-09-23T15:58:02.633Z,17.72
2022-09-23T16:00:29.160Z,17.68
2022-09-23T16:02:55.656Z,17.64
2022-09-23T16:05:27.330Z,17.62
2022-09-23T16:07:53.836Z,17.59
2022-09-23T16:10:22.005Z,17.54
2022-09-23T16:12:49.111Z,17.53
2022-09-23T16:15:20.267Z,17.45
2022-09-23T16:17:46.666Z,17.41
2022-09-23T16:20:18.063Z,17.41
2022-09-23T16:22:54.137Z,17.40
2022-09-23T16:25:23.481Z,17.38
2022-09-23T16:27:50.215Z,17.32
2022-09-23T16:30:16.811Z,17.27
2022-09-23T16:32:43.329Z,17.25
2022-09-23T16:35:09.800Z,17.18
2022-09-23T16:37:36.279Z,17.12
2022-09-23T16:40:04.489Z,17.05
2022-09-23T16:42:30.970Z,16.99
2022-09-23T16:44:57.404Z,16.96
2022-09-23T16:47:23.832Z,16.92
2022-09-23T16:49:50.226Z,16.88
2022-09-23T16:52:16.945Z,16.83
2022-09-23T16:54:43.690Z,16.78
2022-09-23T16:57:10.390Z,16.66
2022-09-23T16:59:55.173Z,16.63
2022-09-23T17:02:40.097Z,16.60
2022-09-23T17:05:06.877Z,16.56
2022-09-23T17:07:33.297Z,16.56
2022-09-23T17:10:00.096Z,16.53
2022-09-23T17:12:35.192Z,16.47
2022-09-23T17:15:06.211Z,16.38
2022-09-23T17:17:37.492Z,16.33
2022-09-23T17:20:06.126Z,16.30
2022-09-23T17:22:33.977Z,16.27
2022-09-23T17:25:03.643Z,16.27
2022-09-23T17:27:31.801Z,16.25
2022-09-23T17:29:58.977Z,16.22
2022-09-23T17:32:26.148Z,16.19
2022-09-23T17:34:52.617Z,16.18
2022-09-23T17:37:19.623Z,16.12
2022-09-23T17:39:46.315Z,16.10
2022-09-23T17:42:13.285Z,16.11
2022-09-23T17:44:39.677Z,16.09
2022-09-23T17:47:06.227Z,16.08
2022-09-23T17:49:35.386Z,16.08
2022-09-23T17:52:05.442Z,16.09
2022-09-23T17:54:32.436Z,16.06
2022-09-23T17:56:59.955Z,16.00
2022-09-23T17:59:26.738Z,15.95
2022-09-23T18:01:54.156Z,15.89
2022-09-23T18:04:21.103Z,15.88
2022-09-23T18:06:47.723Z,15.85
2022-09-23T18:09:14.747Z,15.84
2022-09-23T18:11:44.099Z,15.83
2022-09-23T18:14:19.978Z,15.87
2022-09-23T18:16:48.803Z,15.88
2022-09-23T18:19:17.661Z,15.86
2022-09-23T18:21:47.111Z,15.84
2022-09-23T18:27:01.145Z,15.75
2022-09-23T18:29:27.655Z,15.78
2022-09-23T18:31:54.406Z,15.81
2022-09-23T18:34:21.878Z,15.82
2022-09-23T18:36:48.368Z,15.78
2022-09-23T18:39:14.896Z,15.77
2022-09-23T18:41:41.450Z,15.76
2022-09-23T18:44:08.436Z,15.75
2022-09-23T18:46:35.213Z,15.75
2022-09-23T18:49:20.277Z,15.70
2022-09-23T18:51:55.676Z,15.67
2022-09-23T18:54:24.147Z,15.64
2022-09-23T18:56:52.683Z,15.60
2022-09-23T18:59:21.308Z,15.56
2022-09-23T19:01:50.118Z,15.55
2022-09-23T19:04:18.873Z,15.54
2022-09-23T19:06:45.906Z,15.55
2022-09-23T19:09:12.813Z,15.54
2022-09-23T19:11:39.400Z,15.55
2022-09-23T19:14:10.775Z,15.55
2022-09-23T19:16:37.887Z,15.52
2022-09-23T19:19:05.527Z,15.52
2022-09-23T19:21:32.945Z,15.49
2022-09-23T19:24:05.373Z,15.49
2022-09-23T19:26:35.263Z,15.47
2022-09-23T19:29:05.045Z,15.45
2022-09-23T19:31:34.395Z,15.41
2022-09-23T19:34:04.542Z,15.41
2022-09-23T19:36:37.646Z,15.41
2022-09-23T19:39:12.188Z,15.40
2022-09-23T19:41:38.588Z,15.37
2022-09-23T19:44:07.381Z,15.38
2022-09-23T19:46:37.152Z,15.39
2022-09-23T19:49:05.823Z,15.39
2022-09-23T19:51:35.631Z,15.35
2022-09-23T19:54:03.947Z,15.31
2022-09-23T19:56:32.297Z,15.31
2022-09-23T19:58:59.917Z,15.28
2022-09-23T20:01:27.754Z,15.27
2022-09-23T20:03:54.444Z,15.28
2022-09-23T20:06:21.748Z,15.28
2022-09-23T20:08:49.210Z,15.28
2022-09-23T20:11:26.070Z,15.27
2022-09-23T20:14:01.226Z,15.27
2022-09-23T20:16:31.957Z,15.27
2022-09-23T20:18:59.874Z,15.25
2022-09-23T20:21:28.149Z,15.23
2022-09-23T20:23:54.831Z,15.25
2022-09-23T20:26:39.907Z,15.22
2022-09-23T20:29:06.457Z,15.20
2022-09-23T20:31:34.544Z,15.20
2022-09-23T20:34:05.376Z,15.22
2022-09-23T20:36:33.160Z,15.22
2022-09-23T20:39:01.633Z,15.22
2022-09-23T20:41:29.783Z,15.19
2022-09-23T20:44:00.282Z,15.16
2022-09-23T20:46:28.553Z,15.15
2022-09-23T20:48:56.620Z,15.15
2022-09-23T20:51:24.730Z,15.12
2022-09-23T20:53:52.835Z,15.09
2022-09-23T20:56:22.886Z,15.08
2022-09-23T20:58:50.727Z,15.06
2022-09-23T21:01:18.239Z,15.03
2022-09-23T21:03:47.091Z,15.01
2022-09-23T21:06:16.233Z,15.02
2022-09-23T21:08:44.439Z,14.99
2022-09-23T21:11:13.327Z,14.99
2022-09-23T21:13:39.805Z,14.99
2022-09-23T21:16:09.934Z,14.97
2022-09-23T21:18:37.361Z,14.96
2022-09-23T21:21:05.292Z,14.93
2022-09-23T21:23:35.737Z,14.95
2022-09-23T21:26:11.009Z,14.95
2022-09-23T21:28:48.652Z,14.94
2022-09-23T21:31:25.581Z,14.93
2022-09-23T21:33:59.141Z,14.89
2022-09-23T21:36:27.461Z,14.87
2022-09-23T21:38:55.477Z,14.86
2022-09-23T21:41:22.163Z,14.85
2022-09-23T21:43:49.759Z,14.85
2022-09-23T21:46:20.991Z,14.85
2022-09-23T21:48:52.884Z,14.81
2022-09-23T21:51:25.752Z,14.78
2022-09-23T21:53:54.676Z,14.80
2022-09-23T21:56:29.719Z,14.76
2022-09-23T21:58:57.885Z,14.73
2022-09-23T22:01:26.928Z,14.72
2022-09-23T22:03:59.401Z,14.72
2022-09-23T22:06:27.742Z,14.73
2022-09-23T22:08:59.016Z,14.70
2022-09-23T22:11:49.653Z,14.67
2022-09-23T22:14:17.892Z,14.69
2022-09-23T22:16:44.637Z,14.68
2022-09-23T22:19:13.629Z,14.67
2022-09-23T22:21:42.517Z,14.65
2022-09-23T22:24:10.329Z,14.61
2022-09-23T22:26:39.695Z,14.61
2022-09-23T22:29:26.848Z,14.61
2022-09-23T22:32:12.259Z,14.61
2022-09-23T22:34:55.392Z,14.60
2022-09-23T22:37:28.171Z,14.56
2022-09-23T22:39:54.885Z,14.58
2022-09-23T22:42:22.345Z,14.55
2022-09-23T22:44:49.450Z,14.58
2022-09-23T22:47:17.871Z,14.60
2022-09-23T22:49:44.502Z,14.59
2022-09-23T22:52:11.409Z,14.60
2022-09-23T22:54:38.573Z,14.55
2022-09-23T22:57:06.130Z,14.56
2022-09-23T22:59:33.152Z,14.58
2022-09-23T23:02:00.478Z,14.58
2022-09-23T23:04:27.983Z,14.60
2022-09-23T23:06:54.416Z,14.57
2022-09-23T23:09:20.837Z,14.56
2022-09-23T23:11:47.611Z,14.56
2022-09-23T23:14:17.141Z,14.56
2022-09-23T23:16:46.026Z,14.55
2022-09-23T23:19:16.972Z,14.53
2022-09-23T23:21:44.976Z,14.54
2022-09-23T23:24:17.407Z,14.53
2022-09-23T23:26:44.970Z,14.50
2022-09-23T23:29:13.643Z,14.45
2022-09-23T23:31:40.613Z,14.45
2022-09-23T23:34:11.549Z,14.46
2022-09-23T23:36:38.483Z,14.47
2022-09-23T23:39:05.442Z,14.45
2022-09-23T23:41:31.879Z,14.44
2022-09-23T23:43:59.979Z,14.44
2022-09-23T23:46:28.571Z,14.45
2022-09-23T23:48:56.558Z,14.44
2022-09-23T23:51:26.481Z,14.41
2022-09-23T23:53:54.563Z,14.38
2022-09-23T23:56:23.254Z,14.39
2022-09-23T23:58:57.719Z,14.39
